createdAt,value
2017-08-01T00:00:06.708Z,87.60
2017-08-01T00:02:38.889Z,87.30
2017-08-01T00:05:10.009Z,86.30
2017-08-01T00:07:40.809Z,85.90
2017-08-01T00:10:11.401Z,86.10
2017-08-01T00:12:42.604Z,86.70
2017-08-01T00:15:12.660Z,86.60
2017-08-01T00:17:42.948Z,86.50
2017-08-01T00:20:13.452Z,85.80
2017-08-01T00:22:44.666Z,84.50
2017-08-01T00:25:17.242Z,84.50
2017-08-01T00:27:51.676Z,84.00
2017-08-01T00:30:22.866Z,83.40
2017-08-01T00:32:56.242Z,83.00
2017-08-01T00:35:26.460Z,80.90
2017-08-01T00:37:57.525Z,74.80
2017-08-01T00:40:27.670Z,74.70
2017-08-01T00:42:57.977Z,74.50
2017-08-01T00:45:28.484Z,75.60
2017-08-01T00:47:59.444Z,76.50
2017-08-01T00:50:29.734Z,76.20
2017-08-01T00:53:00.200Z,76.60
2017-08-01T00:55:30.268Z,76.90
2017-08-01T00:58:00.746Z,77.20
2017-08-01T01:00:30.864Z,76.90
2017-08-01T01:03:01.052Z,75.70
2017-08-01T01:05:31.217Z,74.80
2017-08-01T01:08:01.228Z,75.70
2017-08-01T01:10:31.330Z,76.50
2017-08-01T01:13:02.505Z,78.20
2017-08-01T01:15:32.904Z,77.50
2017-08-01T01:18:04.095Z,77.40
2017-08-01T01:20:34.589Z,77.20
2017-08-01T01:23:04.738Z,76.10
2017-08-01T01:25:35.161Z,76.10
2017-08-01T01:28:05.379Z,75.30
2017-08-01T01:30:35.885Z,75.10
2017-08-01T01:33:06.894Z,73.40
2017-08-01T01:35:37.367Z,72.70
2017-08-01T01:38:08.535Z,65.30
2017-08-01T01:40:38.754Z,65.20
2017-08-01T01:43:08.885Z,64.80
2017-08-01T01:45:39.049Z,64.10
2017-08-01T01:48:10.100Z,63.70
2017-08-01T01:50:44.434Z,62.70
2017-08-01T01:53:15.836Z,56.30
2017-08-01T01:55:46.833Z,56.20
2017-08-01T01:58:18.012Z,50.60
2017-08-01T02:00:48.408Z,50.50
2017-08-01T02:03:19.513Z,50.10
2017-08-01T02:05:49.787Z,50.00
2017-08-01T02:08:19.954Z,52.60
2017-08-01T02:10:50.292Z,55.60
2017-08-01T02:13:20.575Z,57.70
2017-08-01T02:15:50.993Z,60.20
2017-08-01T02:18:21.068Z,61.50
2017-08-01T02:20:51.697Z,60.90
2017-08-01T02:23:21.900Z,62.10
2017-08-01T02:25:52.110Z,63.70
2017-08-01T02:28:22.630Z,65.50
2017-08-01T02:30:53.444Z,69.00
2017-08-01T02:33:24.615Z,70.70
2017-08-01T02:35:54.930Z,71.20
2017-08-01T02:38:25.112Z,72.80
2017-08-01T02:40:55.355Z,75.10
2017-08-01T02:43:25.609Z,75.80
2017-08-01T02:45:56.230Z,76.60
2017-08-01T02:48:27.204Z,77.50
2017-08-01T02:50:57.609Z,77.40
2017-08-01T02:53:27.985Z,77.40
2017-08-01T02:55:58.250Z,77.80
2017-08-01T02:58:29.452Z,79.20
2017-08-01T03:00:59.731Z,79.10
2017-08-01T03:03:30.165Z,79.80
2017-08-01T03:06:00.668Z,79.60
2017-08-01T03:08:31.862Z,78.80
2017-08-01T03:11:02.278Z,78.50
2017-08-01T03:13:32.592Z,79.10
2017-08-01T03:16:02.881Z,80.50
2017-08-01T03:18:33.088Z,80.60
2017-08-01T03:21:03.360Z,79.70
2017-08-01T03:23:33.800Z,80.90
2017-08-01T03:26:04.295Z,82.30
2017-08-01T03:28:34.662Z,83.50
2017-08-01T03:31:05.029Z,84.40
2017-08-01T03:33:35.301Z,86.10
2017-08-01T03:36:05.515Z,85.10
2017-08-01T03:38:36.672Z,84.70
2017-08-01T03:41:07.001Z,84.60
2017-08-01T03:43:37.124Z,82.00
2017-08-01T03:46:07.397Z,84.30
2017-08-01T03:48:37.926Z,84.40
2017-08-01T03:51:08.108Z,82.50
2017-08-01T03:53:38.629Z,82.00
2017-08-01T03:56:09.148Z,81.80
2017-08-01T03:58:39.588Z,79.10
2017-08-01T04:01:10.174Z,80.40
2017-08-01T04:03:40.500Z,79.30
2017-08-01T04:06:10.671Z,79.00
2017-08-01T04:08:41.056Z,79.00
2017-08-01T04:11:11.473Z,79.10
2017-08-01T04:13:41.772Z,78.40
2017-08-01T04:16:12.066Z,75.70
2017-08-01T04:18:43.268Z,77.10
2017-08-01T04:21:13.899Z,77.10
2017-08-01T04:23:44.116Z,75.70
2017-08-01T04:26:14.398Z,74.40
2017-08-01T04:28:44.578Z,73.30
2017-08-01T04:31:15.209Z,71.90
2017-08-01T04:33:46.749Z,71.10
2017-08-01T04:36:17.021Z,68.50
2017-08-01T04:38:48.083Z,69.50
2017-08-01T04:41:18.385Z,69.50
2017-08-01T04:43:49.573Z,69.80
2017-08-01T04:46:19.757Z,69.10
2017-08-01T04:48:50.828Z,67.10
2017-08-01T04:51:21.129Z,67.00
2017-08-01T04:53:52.190Z,67.50
2017-08-01T04:56:22.605Z,67.50
2017-08-01T04:58:53.740Z,66.50
2017-08-01T05:01:24.773Z,64.00
2017-08-01T05:03:55.028Z,64.00
2017-08-01T05:06:25.128Z,61.90
2017-08-01T05:08:56.201Z,64.20
2017-08-01T05:11:26.496Z,64.00
2017-08-01T05:13:57.489Z,61.70
2017-08-01T05:16:27.660Z,61.30
2017-08-01T05:18:58.836Z,60.90
2017-08-01T05:21:29.132Z,60.80
2017-08-01T05:24:00.201Z,61.10
2017-08-01T05:26:30.518Z,60.50
2017-08-01T05:29:00.882Z,59.60
2017-08-01T05:31:31.573Z,60.60
2017-08-01T05:34:01.707Z,59.50
2017-08-01T05:36:31.903Z,59.60
2017-08-01T05:39:02.260Z,59.70
2017-08-01T05:41:32.468Z,58.80
2017-08-01T05:44:03.519Z,59.30
2017-08-01T05:46:33.735Z,59.20
2017-08-01T05:49:04.891Z,58.20
2017-08-01T05:51:37.834Z,58.20
2017-08-01T05:54:08.013Z,58.00
2017-08-01T05:56:38.222Z,57.60
2017-08-01T05:59:08.780Z,57.00
2017-08-01T06:01:38.905Z,57.40
2017-08-01T06:04:09.215Z,56.60
2017-08-01T06:06:39.612Z,57.40
2017-08-01T06:09:09.808Z,57.90
2017-08-01T06:11:40.153Z,57.30
2017-08-01T06:14:10.817Z,56.60
2017-08-01T06:16:41.333Z,56.30
2017-08-01T06:19:12.403Z,57.80
2017-08-01T06:21:42.714Z,57.70
2017-08-01T06:24:13.100Z,57.90
2017-08-01T06:26:43.567Z,58.00
2017-08-01T06:29:13.748Z,59.10
2017-08-01T06:31:44.430Z,60.20
2017-08-01T06:34:14.771Z,60.50
2017-08-01T06:36:44.960Z,60.90
2017-08-01T06:39:16.084Z,61.80
2017-08-01T06:41:46.366Z,60.80
2017-08-01T06:44:16.775Z,59.00
2017-08-01T06:46:47.013Z,58.00
2017-08-01T06:49:17.280Z,56.40
2017-08-01T06:51:47.446Z,56.80
2017-08-01T06:54:17.982Z,57.20
2017-08-01T06:56:48.608Z,57.00
2017-08-01T06:59:19.046Z,57.40
2017-08-01T07:01:49.203Z,58.70
2017-08-01T07:04:19.606Z,59.00
2017-08-01T07:06:50.475Z,57.70
2017-08-01T07:09:21.123Z,57.60
2017-08-01T07:11:54.505Z,58.40
2017-08-01T07:14:26.442Z,57.80
2017-08-01T07:16:56.966Z,57.80
2017-08-01T07:19:27.433Z,57.70
2017-08-01T07:21:57.737Z,57.20
2017-08-01T07:24:28.044Z,56.80
2017-08-01T07:26:58.349Z,57.70
2017-08-01T07:29:29.512Z,60.40
2017-08-01T07:32:00.122Z,60.40
2017-08-01T07:34:32.330Z,61.70
2017-08-01T07:37:03.104Z,61.70
2017-08-01T07:39:33.648Z,62.40
2017-08-01T07:42:04.317Z,63.30
2017-08-01T07:44:34.556Z,63.70
2017-08-01T07:47:05.049Z,64.20
2017-08-01T07:49:36.005Z,66.00
2017-08-01T07:52:06.327Z,66.00
2017-08-01T07:54:36.624Z,66.40
2017-08-01T07:57:08.180Z,66.90
2017-08-01T07:59:38.439Z,67.00
2017-08-01T08:02:08.848Z,67.50
2017-08-01T08:04:39.807Z,68.00
2017-08-01T08:07:13.691Z,68.00
2017-08-01T08:09:46.318Z,68.00
2017-08-01T08:12:17.081Z,68.80
2017-08-01T08:14:48.056Z,68.50
2017-08-01T08:17:19.209Z,67.70
2017-08-01T08:19:50.364Z,68.50
2017-08-01T08:22:20.684Z,68.50
2017-08-01T08:24:51.733Z,68.70
2017-08-01T08:27:22.259Z,68.70
2017-08-01T08:29:56.278Z,69.60
2017-08-01T08:32:27.218Z,69.60
2017-08-01T08:34:57.810Z,69.80
2017-08-01T08:37:27.961Z,69.80
2017-08-01T08:40:00.191Z,69.40
2017-08-01T08:42:31.895Z,69.40
2017-08-01T08:45:07.227Z,69.30
2017-08-01T08:47:41.532Z,69.00
2017-08-01T08:50:11.997Z,69.00
2017-08-01T08:52:42.505Z,68.80
2017-08-01T08:55:13.492Z,68.50
2017-08-01T08:57:44.373Z,68.30
2017-08-01T09:00:15.033Z,68.50
2017-08-01T09:02:47.852Z,66.80
2017-08-01T09:05:19.480Z,66.50
2017-08-01T09:07:49.785Z,67.10
2017-08-01T09:10:20.652Z,66.00
2017-08-01T09:12:52.806Z,65.80
2017-08-01T09:15:23.557Z,65.00
2017-08-01T09:17:54.488Z,64.50
2017-08-01T09:20:25.534Z,64.10
2017-08-01T09:22:56.273Z,64.50
2017-08-01T09:25:28.252Z,64.30
2017-08-01T09:27:59.483Z,63.80
2017-08-01T09:30:29.813Z,64.00
2017-08-01T09:33:00.425Z,62.10
2017-08-01T09:35:31.480Z,62.30
2017-08-01T09:38:01.793Z,62.30
2017-08-01T09:40:32.951Z,61.90
2017-08-01T09:43:03.161Z,61.80
2017-08-01T09:45:34.248Z,60.20
2017-08-01T09:48:04.544Z,60.10
2017-08-01T09:50:34.874Z,60.40
2017-08-01T09:53:05.281Z,59.00
2017-08-01T09:55:36.348Z,58.30
2017-08-01T09:58:06.761Z,58.20
2017-08-01T10:00:38.273Z,57.10
2017-08-01T10:03:09.398Z,57.10
2017-08-01T10:05:40.957Z,57.80
2017-08-01T10:08:11.253Z,57.80
2017-08-01T10:10:41.376Z,58.50
2017-08-01T10:13:16.953Z,61.00
2017-08-01T10:15:50.310Z,62.10
2017-08-01T10:18:23.640Z,65.00
2017-08-01T10:20:54.688Z,65.00
2017-08-01T10:23:25.238Z,66.60
2017-08-01T10:25:55.511Z,66.60
2017-08-01T10:28:25.811Z,67.00
2017-08-01T10:30:56.169Z,67.50
2017-08-01T10:33:26.818Z,67.00
2017-08-01T10:35:57.333Z,67.70
2017-08-01T10:38:27.859Z,68.40
2017-08-01T10:40:58.239Z,68.20
2017-08-01T10:43:28.512Z,68.10
2017-08-01T10:45:58.729Z,67.90
2017-08-01T10:48:29.963Z,68.80
2017-08-01T10:51:00.410Z,68.80
2017-08-01T10:53:30.828Z,67.90
2017-08-01T10:56:01.699Z,66.50
2017-08-01T10:58:32.107Z,66.50
2017-08-01T11:01:02.637Z,67.30
2017-08-01T11:03:33.248Z,67.30
2017-08-01T11:06:04.324Z,67.20
2017-08-01T11:08:34.746Z,67.10
2017-08-01T11:11:05.268Z,67.70
2017-08-01T11:13:35.600Z,68.10
2017-08-01T11:16:06.130Z,68.20
2017-08-01T11:18:36.716Z,68.50
2017-08-01T11:21:07.136Z,69.00
2017-08-01T11:23:37.759Z,68.80
2017-08-01T11:26:08.152Z,69.30
2017-08-01T11:28:38.552Z,69.80
2017-08-01T11:31:08.913Z,70.40
2017-08-01T11:33:39.732Z,70.10
2017-08-01T11:36:10.328Z,69.70
2017-08-01T11:38:40.748Z,70.00
2017-08-01T11:41:11.147Z,70.20
2017-08-01T11:43:41.546Z,70.60
2017-08-01T11:46:11.893Z,70.60
2017-08-01T11:48:42.301Z,70.80
2017-08-01T11:51:12.725Z,71.00
2017-08-01T11:53:43.768Z,71.10
2017-08-01T11:56:14.117Z,71.10
2017-08-01T11:58:44.633Z,71.60
2017-08-01T12:01:15.688Z,71.50
2017-08-01T12:03:46.106Z,71.40
2017-08-01T12:06:17.160Z,71.50
2017-08-01T12:08:47.473Z,71.40
2017-08-01T12:11:18.495Z,71.20
2017-08-01T12:13:48.864Z,71.10
2017-08-01T12:16:19.433Z,71.40
2017-08-01T12:18:49.964Z,71.70
2017-08-01T12:21:20.345Z,71.80
2017-08-01T12:23:51.671Z,72.90
2017-08-01T12:26:22.759Z,71.50
2017-08-01T12:28:54.583Z,71.40
2017-08-01T12:31:25.675Z,70.60
2017-08-01T12:33:56.161Z,70.40
2017-08-01T12:36:27.233Z,71.10
2017-08-01T12:38:57.736Z,71.10
2017-08-01T12:41:28.814Z,72.00
2017-08-01T12:43:59.204Z,71.90
2017-08-01T12:46:30.209Z,72.60
2017-08-01T12:49:00.483Z,72.60
2017-08-01T12:51:30.810Z,73.00
2017-08-01T12:54:01.434Z,72.90
2017-08-01T12:56:31.434Z,72.30
2017-08-01T12:59:01.787Z,72.60
2017-08-01T13:01:32.228Z,72.10
2017-08-01T13:04:02.765Z,71.40
2017-08-01T13:06:33.295Z,71.70
2017-08-01T13:09:03.654Z,72.20
2017-08-01T13:11:33.957Z,72.20
2017-08-01T13:14:04.173Z,72.30
2017-08-01T13:16:34.653Z,72.20
2017-08-01T13:19:05.205Z,72.10
2017-08-01T13:21:36.212Z,72.40
2017-08-01T13:24:09.395Z,72.30
2017-08-01T13:26:39.852Z,72.20
2017-08-01T13:29:10.188Z,72.20
2017-08-01T13:31:43.449Z,72.70
2017-08-01T13:34:21.512Z,73.20
2017-08-01T13:36:54.190Z,73.60
2017-08-01T13:39:26.605Z,73.50
2017-08-01T13:41:59.170Z,73.80
2017-08-01T13:44:29.790Z,73.70
2017-08-01T13:47:00.916Z,73.20
2017-08-01T13:49:32.963Z,73.00
2017-08-01T13:52:04.145Z,73.40
2017-08-01T13:54:35.385Z,73.30
2017-08-01T13:57:05.820Z,73.50
2017-08-01T13:59:36.138Z,73.60
2017-08-01T14:02:06.481Z,73.60
2017-08-01T14:04:36.881Z,73.60
2017-08-01T14:07:07.741Z,74.10
2017-08-01T14:09:38.373Z,74.00
2017-08-01T14:12:08.897Z,74.20
2017-08-01T14:14:39.307Z,74.20
2017-08-01T14:17:10.422Z,74.20
2017-08-01T14:19:40.793Z,74.10
2017-08-01T14:22:11.860Z,74.50
2017-08-01T14:24:42.143Z,74.50
2017-08-01T14:27:12.590Z,75.50
2017-08-01T14:29:44.223Z,76.10
2017-08-01T14:32:16.250Z,76.80
2017-08-01T14:34:49.448Z,77.10
2017-08-01T14:37:20.818Z,76.10
2017-08-01T14:39:52.004Z,76.80
2017-08-01T14:42:25.975Z,76.10
2017-08-01T14:44:58.999Z,76.00
2017-08-01T14:47:31.067Z,76.00
2017-08-01T14:50:01.604Z,76.00
2017-08-01T14:52:32.081Z,76.20
2017-08-01T14:55:02.396Z,76.10
2017-08-01T14:57:32.689Z,76.20
2017-08-01T15:00:02.956Z,76.20
2017-08-01T15:02:33.593Z,76.10
2017-08-01T15:05:03.869Z,76.10
2017-08-01T15:07:34.226Z,75.80
2017-08-01T15:10:04.733Z,75.80
2017-08-01T15:12:35.362Z,76.10
2017-08-01T15:15:05.942Z,76.00
2017-08-01T15:17:36.668Z,76.10
2017-08-01T15:20:06.937Z,76.30
2017-08-01T15:22:38.063Z,76.50
2017-08-01T15:25:09.424Z,77.00
2017-08-01T15:27:39.828Z,76.20
2017-08-01T15:30:10.083Z,76.80
2017-08-01T15:32:41.178Z,76.80
2017-08-01T15:35:11.728Z,76.70
2017-08-01T15:37:42.141Z,76.10
2017-08-01T15:40:12.611Z,75.70
2017-08-01T15:42:43.688Z,75.30
2017-08-01T15:45:14.113Z,75.20
2017-08-01T15:47:44.533Z,74.90
2017-08-01T15:50:15.021Z,74.60
2017-08-01T15:52:45.532Z,74.20
2017-08-01T15:55:15.915Z,74.30
2017-08-01T15:57:46.252Z,75.00
2017-08-01T16:00:16.653Z,75.80
2017-08-01T16:02:47.712Z,77.10
2017-08-01T16:05:17.907Z,76.40
2017-08-01T16:07:48.467Z,77.10
2017-08-01T16:10:18.900Z,77.60
2017-08-01T16:12:50.619Z,77.50
2017-08-01T16:15:21.225Z,77.50
2017-08-01T16:17:52.510Z,77.80
2017-08-01T16:20:23.370Z,77.70
2017-08-01T16:22:54.451Z,76.70
2017-08-01T16:25:25.281Z,76.60
2017-08-01T16:27:57.143Z,76.10
2017-08-01T16:30:27.922Z,76.20
2017-08-01T16:32:58.883Z,77.00
2017-08-01T16:35:30.015Z,78.00
2017-08-01T16:38:00.780Z,77.90
2017-08-01T16:40:31.247Z,78.50
2017-08-01T16:43:01.444Z,79.10
2017-08-01T16:45:31.844Z,79.20
2017-08-01T16:48:03.006Z,80.20
2017-08-01T16:50:33.221Z,79.40
2017-08-01T16:53:03.658Z,79.50
2017-08-01T16:55:34.069Z,79.20
2017-08-01T16:58:04.615Z,79.10
2017-08-01T17:00:35.245Z,79.10
2017-08-01T17:03:05.684Z,79.10
2017-08-01T17:05:36.101Z,78.90
2017-08-01T17:08:08.542Z,79.00
2017-08-01T17:10:39.337Z,79.00
2017-08-01T17:13:12.740Z,79.10
2017-08-01T17:15:43.528Z,79.70
2017-08-01T17:18:17.960Z,80.00
2017-08-01T17:20:51.915Z,79.90
2017-08-01T17:23:25.889Z,79.80
2017-08-01T17:26:01.258Z,79.90
2017-08-01T17:28:32.880Z,79.90
2017-08-01T17:31:04.422Z,80.60
2017-08-01T17:33:37.933Z,80.40
2017-08-01T17:36:12.217Z,81.20
2017-08-01T17:38:42.756Z,81.10
2017-08-01T17:41:16.380Z,81.30
2017-08-01T17:43:47.411Z,81.50
2017-08-01T17:46:18.311Z,81.50
2017-08-01T17:48:49.433Z,81.30
2017-08-01T17:51:19.657Z,81.00
2017-08-01T17:53:49.906Z,81.10
2017-08-01T17:56:20.514Z,81.10
2017-08-01T17:58:51.153Z,80.80
2017-08-01T18:01:21.760Z,80.50
2017-08-01T18:03:56.706Z,80.80
2017-08-01T18:06:28.297Z,80.40
2017-08-01T18:08:59.062Z,80.30
2017-08-01T18:11:29.952Z,80.40
2017-08-01T18:14:03.410Z,80.40
2017-08-01T18:16:36.724Z,80.80
2017-08-01T18:19:08.658Z,79.10
2017-08-01T18:21:39.582Z,78.90
2017-08-01T18:24:10.444Z,79.00
2017-08-01T18:26:43.362Z,81.50
2017-08-01T18:29:15.109Z,85.10
2017-08-01T18:31:45.781Z,85.00
2017-08-01T18:34:16.083Z,86.20
2017-08-01T18:36:46.624Z,85.80
2017-08-01T18:39:22.037Z,86.60
2017-08-01T18:41:54.350Z,87.30
2017-08-01T18:44:27.758Z,87.80
2017-08-01T18:46:58.716Z,87.80
2017-08-01T18:49:29.005Z,87.50
2017-08-01T18:51:59.108Z,87.90
2017-08-01T18:54:29.562Z,88.10
2017-08-01T18:57:00.033Z,88.60
2017-08-01T18:59:30.220Z,89.10
2017-08-01T19:02:00.721Z,88.50
2017-08-01T19:04:31.169Z,88.60
2017-08-01T19:07:01.600Z,88.50
2017-08-01T19:09:36.953Z,88.60
2017-08-01T19:12:08.782Z,88.70
2017-08-01T19:14:42.921Z,88.60
2017-08-01T19:17:16.473Z,88.50
2017-08-01T19:19:46.950Z,89.00
2017-08-01T19:22:19.555Z,89.90
2017-08-01T19:24:55.049Z,88.80
2017-08-01T19:27:29.258Z,88.20
2017-08-01T19:30:02.329Z,88.80
2017-08-01T19:32:32.710Z,88.60
2017-08-01T19:35:03.136Z,87.60
2017-08-01T19:37:33.767Z,86.80
2017-08-01T19:40:06.467Z,87.00
2017-08-01T19:42:37.303Z,87.50
2017-08-01T19:45:08.184Z,87.90
2017-08-01T19:47:38.935Z,87.00
2017-08-01T19:50:13.787Z,87.90
2017-08-01T19:52:45.449Z,88.80
2017-08-01T19:55:17.105Z,89.00
2017-08-01T19:57:49.308Z,88.70
2017-08-01T20:00:19.520Z,88.70
2017-08-01T20:02:50.928Z,87.20
2017-08-01T20:05:22.094Z,88.30
2017-08-01T20:07:56.018Z,89.20
2017-08-01T20:10:26.990Z,89.10
2017-08-01T20:12:57.399Z,89.20
2017-08-01T20:15:28.474Z,89.20
2017-08-01T20:17:59.359Z,89.30
2017-08-01T20:20:31.717Z,88.80
2017-08-01T20:23:05.111Z,86.70
2017-08-01T20:25:35.466Z,86.50
2017-08-01T20:28:06.437Z,86.00
2017-08-01T20:30:38.589Z,86.60
2017-08-01T20:33:11.618Z,87.50
2017-08-01T20:35:43.059Z,88.60
2017-08-01T20:38:13.533Z,88.70
2017-08-01T20:40:43.658Z,88.60
2017-08-01T20:43:14.837Z,89.00
2017-08-01T20:45:48.524Z,88.90
2017-08-01T20:48:19.822Z,88.40
2017-08-01T20:50:53.326Z,87.90
2017-08-01T20:53:24.200Z,87.50
2017-08-01T20:55:55.361Z,87.10
2017-08-01T20:58:25.977Z,87.10
2017-08-01T21:00:57.141Z,88.90
2017-08-01T21:03:27.540Z,88.80
2017-08-01T21:06:00.741Z,88.50
2017-08-01T21:08:32.129Z,88.70
2017-08-01T21:11:02.964Z,88.70
2017-08-01T21:13:33.884Z,88.90
2017-08-01T21:16:04.005Z,88.60
2017-08-01T21:18:34.314Z,86.60
2017-08-01T21:21:04.761Z,86.80
2017-08-01T21:23:35.176Z,86.40
2017-08-01T21:26:05.864Z,87.40
2017-08-01T21:28:36.049Z,87.40
2017-08-01T21:31:06.267Z,88.70
2017-08-01T21:33:36.776Z,87.80
2017-08-01T21:36:07.944Z,87.00
2017-08-01T21:38:38.256Z,86.50
2017-08-01T21:43:45.115Z,87.70
2017-08-01T21:46:16.155Z,88.90
2017-08-01T21:48:48.863Z,89.60
2017-08-01T21:51:22.929Z,90.10
2017-08-01T21:53:53.320Z,90.20
2017-08-01T21:56:23.868Z,90.10
2017-08-01T21:58:54.378Z,89.70
2017-08-01T22:01:24.824Z,88.90
2017-08-01T22:03:55.083Z,89.00
2017-08-01T22:06:29.277Z,89.20
2017-08-01T22:09:01.401Z,89.00
2017-08-01T22:11:32.184Z,89.40
2017-08-01T22:14:03.600Z,88.30
2017-08-01T22:16:33.946Z,88.80
2017-08-01T22:19:04.468Z,89.20
2017-08-01T22:21:39.130Z,88.60
2017-08-01T22:24:09.856Z,88.50
2017-08-01T22:26:40.943Z,88.80
2017-08-01T22:29:11.396Z,89.40
2017-08-01T22:31:41.756Z,89.80
2017-08-01T22:34:12.073Z,89.10
2017-08-01T22:36:42.390Z,89.00
2017-08-01T22:39:12.829Z,90.20
2017-08-01T22:41:43.205Z,89.60
2017-08-01T22:44:14.275Z,89.40
2017-08-01T22:46:44.828Z,89.50
2017-08-01T22:49:15.711Z,89.80
2017-08-01T22:51:46.579Z,90.10
2017-08-01T22:54:17.648Z,89.60
2017-08-01T22:56:48.083Z,90.00
2017-08-01T22:59:18.592Z,89.60
2017-08-01T23:01:49.549Z,89.30
2017-08-01T23:04:19.872Z,89.30
2017-08-01T23:06:49.933Z,89.30
2017-08-01T23:09:22.117Z,89.70
2017-08-01T23:11:53.125Z,89.90
2017-08-01T23:14:23.842Z,89.50
2017-08-01T23:16:54.776Z,89.30
2017-08-01T23:19:25.160Z,89.20
2017-08-01T23:21:55.588Z,89.50
2017-08-01T23:24:25.954Z,90.20
2017-08-01T23:26:56.105Z,89.60
2017-08-01T23:29:26.493Z,90.10
2017-08-01T23:31:57.102Z,90.20
2017-08-01T23:34:27.403Z,90.20
2017-08-01T23:36:58.005Z,90.50
2017-08-01T23:39:28.835Z,90.80
2017-08-01T23:42:02.697Z,91.00
2017-08-01T23:44:35.553Z,91.20
2017-08-01T23:47:06.421Z,91.40
2017-08-01T23:49:37.197Z,91.30
2017-08-01T23:52:07.642Z,91.20
2017-08-01T23:54:37.849Z,91.00
2017-08-01T23:57:08.106Z,91.10
2017-08-01T23:59:38.669Z,91.10
